Time;durP1;ratioP1;P1;durP2;ratioP2;P2;SDS_P1;SDS_P2;PMS_P1;PMS_P2;Temp;Humidity;BMP_temperature;BMP_pressure;BME280_temperature;BME280_humidity;BME280_pressure;Samples;Min_cycle;Max_cycle;Signal;HPM_P1;HPM_P2
2024/03/31 00:03:44;;;;;;;32.53;11.25;;;;;;;12.08;70.74;98705.25;10410486;28;20326;-56
2024/03/31 00:08:44;;;;;;;33.65;7.90;;;;;;;12.18;70.82;98699.31;10406614;28;20045;-55
2024/03/31 00:13:45;;;;;;;24.92;8.35;;;;;;;12.21;70.35;98697.00;10416115;28;20491;-56
2024/03/31 00:18:45;;;;;;;27.02;7.00;;;;;;;12.21;70.80;98705.09;10406272;28;20447;-56
2024/03/31 00:23:45;;;;;;;40.15;11.85;;;;;;;11.94;71.65;98701.09;10406089;28;20411;-55
2024/03/31 00:28:47;;;;;;;33.70;11.05;;;;;;;11.88;71.81;98710.84;10408336;28;20488;-55
2024/03/31 00:33:48;;;;;;;27.35;8.98;;;;;;;11.98;71.72;98727.31;10412904;28;20530;-55
2024/03/31 00:38:49;;;;;;;33.78;9.50;;;;;;;12.03;71.20;98751.72;10412065;28;20041;-55
2024/03/31 00:43:49;;;;;;;28.92;8.18;;;;;;;12.00;71.87;98765.63;10408361;28;20132;-55
2024/03/31 00:48:50;;;;;;;26.00;9.85;;;;;;;12.00;71.78;98749.47;10413461;28;20045;-56
2024/03/31 00:53:50;;;;;;;23.63;7.63;;;;;;;11.97;71.51;98751.81;10410923;28;20045;-56
2024/03/31 00:58:51;;;;;;;29.13;8.25;;;;;;;11.90;71.72;98735.72;10409075;28;20048;-55
2024/03/31 01:03:51;;;;;;;22.40;7.22;;;;;;;11.58;72.50;98729.63;10405712;28;20662;-55
2024/03/31 01:08:53;;;;;;;19.60;7.10;;;;;;;11.49;73.16;98708.38;10410389;28;20045;-56
2024/03/31 01:13:57;;;;;;;25.08;5.68;;;;;;;11.44;73.49;98704.72;10406479;28;20052;-56
2024/03/31 01:18:57;;;;;;;21.98;5.60;;;;;;;11.33;74.01;98714.31;10412802;28;20045;-56
2024/03/31 01:23:59;;;;;;;18.52;5.28;;;;;;;11.21;74.08;98727.66;10414849;28;20053;-59
2024/03/31 01:29:00;;;;;;;18.02;5.60;;;;;;;11.29;74.08;98740.00;10405382;28;20044;-58
2024/03/31 01:34:01;;;;;;;17.88;3.75;;;;;;;11.51;73.41;98743.13;10406531;28;20052;-58
2024/03/31 01:39:02;;;;;;;17.42;5.95;;;;;;;11.64;73.42;98742.19;10405526;28;20041;-58
2024/03/31 01:44:03;;;;;;;20.38;5.65;;;;;;;11.80;72.88;98754.22;10405815;28;20045;-58
2024/03/31 01:49:03;;;;;;;21.88;6.53;;;;;;;11.79;73.22;98756.09;10409250;28;20037;-58
2024/03/31 01:54:04;;;;;;;19.42;5.70;;;;;;;11.82;72.49;98752.94;10388819;28;20036;-58
2024/03/31 01:59:04;;;;;;;24.80;6.82;;;;;;;11.88;72.74;98762.00;10408608;28;20094;-58
2024/03/31 02:04:05;;;;;;;21.20;5.93;;;;;;;11.89;73.17;98764.50;10405886;28;20423;-58
2024/03/31 02:09:05;;;;;;;21.05;6.13;;;;;;;11.91;73.19;98764.28;10404768;28;20048;-56
2024/03/31 02:14:05;;;;;;;26.23;5.70;;;;;;;11.85;73.28;98770.56;10400389;28;20051;-57
2024/03/31 02:19:06;;;;;;;39.35;7.60;;;;;;;11.83;73.58;98772.66;10402563;28;20095;-58
2024/03/31 02:24:07;;;;;;;32.00;5.70;;;;;;;11.72;73.79;98776.88;10406071;28;20496;-58
2024/03/31 02:29:07;;;;;;;20.08;5.22;;;;;;;11.78;73.70;98775.97;10405221;28;20038;-58
2024/03/31 02:34:08;;;;;;;22.02;5.75;;;;;;;11.85;73.98;98776.75;10402143;28;20050;-57
2024/03/31 02:39:09;;;;;;;20.60;5.40;;;;;;;11.88;73.82;98789.75;10408889;28;20068;-57
2024/03/31 02:44:09;;;;;;;24.67;6.80;;;;;;;11.96;74.10;98787.84;10407472;28;20049;-57
2024/03/31 02:49:10;;;;;;;20.95;5.50;;;;;;;11.81;74.26;98791.69;10401956;28;20136;-57
2024/03/31 02:54:10;;;;;;;20.08;7.60;;;;;;;11.85;74.50;98782.13;10408955;28;20040;-58
2024/03/31 02:59:10;;;;;;;20.75;7.72;;;;;;;11.89;73.87;98794.13;10405382;28;20087;-59
2024/03/31 03:04:11;;;;;;;25.73;5.82;;;;;;;11.93;74.33;98788.28;10407447;28;20532;-58
2024/03/31 03:09:11;;;;;;;17.73;6.22;;;;;;;11.96;74.20;98791.34;10402965;28;20075;-58
2024/03/31 03:14:12;;;;;;;15.68;4.70;;;;;;;11.97;74.26;98787.63;10405320;28;20139;-57
2024/03/31 03:19:13;;;;;;;15.70;5.35;;;;;;;11.95;74.15;98778.97;10400525;28;20045;-58
2024/03/31 03:24:13;;;;;;;22.90;5.90;;;;;;;11.91;74.67;98780.44;10408327;28;20049;-59
2024/03/31 03:29:14;;;;;;;22.52;5.65;;;;;;;11.91;74.98;98769.69;10401899;28;20094;-58
2024/03/31 03:34:14;;;;;;;20.05;7.45;;;;;;;11.82;75.09;98758.34;10404888;28;20056;-58
2024/03/31 03:39:17;;;;;;;29.00;8.40;;;;;;;11.86;75.26;98756.84;10410605;28;20056;-58
2024/03/31 03:44:18;;;;;;;18.90;6.20;;;;;;;11.88;75.25;98756.63;10415296;28;20049;-59
2024/03/31 03:49:18;;;;;;;21.50;6.35;;;;;;;11.88;75.39;98743.97;10413113;28;20045;-59
2024/03/31 03:54:19;;;;;;;23.02;7.07;;;;;;;11.86;75.43;98727.22;10413775;28;20060;-60
2024/03/31 03:59:19;;;;;;;20.02;6.53;;;;;;;11.88;75.47;98713.53;10412929;28;20044;-59
2024/03/31 04:04:20;;;;;;;20.35;5.95;;;;;;;11.84;75.69;98721.25;10414619;28;20419;-60
2024/03/31 04:09:20;;;;;;;23.52;7.90;;;;;;;11.85;76.08;98738.25;10408347;28;20466;-59
2024/03/31 04:14:21;;;;;;;17.83;7.35;;;;;;;11.84;75.93;98731.19;10411162;28;20463;-59
2024/03/31 04:19:21;;;;;;;19.73;6.30;;;;;;;11.82;76.34;98723.34;10413008;28;20114;-59
2024/03/31 04:24:22;;;;;;;27.80;10.13;;;;;;;11.81;76.50;98735.16;10405574;28;20045;-60
2024/03/31 04:29:22;;;;;;;26.15;11.80;;;;;;;11.81;76.14;98723.56;10408294;28;20462;-58
2024/03/31 04:34:27;;;;;;;25.00;7.55;;;;;;;11.81;76.35;98729.78;10410407;28;20053;-58
2024/03/31 04:39:28;;;;;;;24.17;7.45;;;;;;;11.78;76.23;98727.53;10404778;28;20044;-58
2024/03/31 04:44:28;;;;;;;33.50;12.93;;;;;;;11.79;76.74;98722.97;10406782;28;20037;-59
2024/03/31 04:49:28;;;;;;;29.33;8.98;;;;;;;11.80;76.82;98716.53;10411393;28;20126;-59
2024/03/31 04:54:29;;;;;;;21.08;7.70;;;;;;;11.80;76.81;98719.22;10406252;28;20040;-59
2024/03/31 04:59:29;;;;;;;26.65;9.23;;;;;;;11.84;76.87;98726.63;10413380;28;20049;-58
2024/03/31 05:04:32;;;;;;;19.98;6.03;;;;;;;11.78;76.68;98732.09;10411179;28;20050;-68
2024/03/31 05:09:33;;;;;;;27.63;7.38;;;;;;;11.84;76.77;98729.31;10411058;28;20102;-68
2024/03/31 05:14:33;;;;;;;24.65;9.80;;;;;;;11.82;76.81;98726.03;10406265;28;20111;-65
2024/03/31 05:19:34;;;;;;;29.77;10.80;;;;;;;11.70;77.00;98722.44;10404457;28;20099;-65
2024/03/31 05:24:34;;;;;;;44.78;16.35;;;;;;;11.58;77.79;98716.97;10407183;28;20046;-66
2024/03/31 05:29:35;;;;;;;33.47;12.02;;;;;;;11.56;77.28;98719.06;10408897;28;20231;-65
2024/03/31 05:34:37;;;;;;;30.38;12.80;;;;;;;11.70;77.03;98725.13;10408125;28;20079;-65
2024/03/31 05:39:37;;;;;;;20.65;7.85;;;;;;;11.77;76.63;98715.13;10409366;28;20660;-66
2024/03/31 05:44:38;;;;;;;21.35;7.20;;;;;;;11.79;76.96;98696.03;10407347;28;20050;-67
2024/03/31 05:49:38;;;;;;;32.22;12.35;;;;;;;11.80;77.21;98719.22;10409162;28;20055;-64
2024/03/31 05:54:39;;;;;;;23.33;6.97;;;;;;;11.83;77.01;98708.03;10407568;28;20568;-66
2024/03/31 05:59:39;;;;;;;27.30;6.68;;;;;;;11.82;77.37;98706.38;10401713;28;20447;-68
2024/03/31 06:04:40;;;;;;;20.30;7.15;;;;;;;11.83;77.03;98716.09;10413710;28;20080;-67
2024/03/31 06:09:45;;;;;;;19.02;6.68;;;;;;;11.82;77.32;98714.44;10406634;28;20056;-69
2024/03/31 06:14:45;;;;;;;21.50;6.80;;;;;;;11.84;77.02;98721.25;10405654;28;20488;-67
2024/03/31 06:19:46;;;;;;;23.08;6.80;;;;;;;11.97;77.01;98712.22;10405454;28;20040;-66
2024/03/31 06:24:47;;;;;;;24.45;6.43;;;;;;;12.07;76.72;98709.81;10384644;28;20055;-65
2024/03/31 06:29:51;;;;;;;18.30;5.68;;;;;;;12.11;77.36;98704.81;10401125;28;20045;-62
2024/03/31 06:34:52;;;;;;;17.27;5.50;;;;;;;12.15;76.87;98700.63;10406288;28;20060;-65
2024/03/31 06:39:53;;;;;;;23.88;7.63;;;;;;;12.04;77.70;98696.78;10405613;28;20053;-64
2024/03/31 06:44:54;;;;;;;20.58;6.68;;;;;;;12.02;77.58;98685.44;10407384;28;20048;-67
2024/03/31 06:49:54;;;;;;;20.88;6.97;;;;;;;12.09;77.30;98696.13;10403550;28;20059;-62
2024/03/31 06:54:56;;;;;;;25.75;9.07;;;;;;;12.14;77.19;98682.78;10406410;28;20068;-62
2024/03/31 06:59:56;;;;;;;25.60;8.02;;;;;;;12.22;77.00;98684.34;10404195;28;20065;-62
2024/03/31 07:04:57;;;;;;;25.20;7.93;;;;;;;12.14;77.54;98696.25;10405666;28;20052;-62
2024/03/31 07:09:57;;;;;;;18.70;7.22;;;;;;;12.23;77.09;98689.53;10410882;28;20049;-62
2024/03/31 07:14:58;;;;;;;26.73;7.43;;;;;;;12.39;77.42;98687.25;10410718;28;20045;-62
2024/03/31 07:19:58;;;;;;;20.30;6.40;;;;;;;12.66;76.31;98687.69;10413189;28;20500;-62
2024/03/31 07:24:59;;;;;;;26.58;7.03;;;;;;;12.85;76.50;98683.81;10410162;28;20484;-62
2024/03/31 07:29:59;;;;;;;35.08;6.65;;;;;;;13.09;76.44;98665.81;10409570;28;20095;-63
2024/03/31 07:35:00;;;;;;;20.80;6.72;;;;;;;13.33;75.83;98673.94;10408339;28;20094;-63
2024/03/31 07:40:01;;;;;;;18.27;6.47;;;;;;;13.38;75.79;98665.13;10410690;28;20046;-63
2024/03/31 07:45:03;;;;;;;19.63;5.95;;;;;;;13.44;75.80;98664.19;10412061;28;20095;-63
2024/03/31 07:50:04;;;;;;;15.25;5.40;;;;;;;13.49;75.68;98653.50;10414385;28;20094;-62
2024/03/31 07:55:05;;;;;;;21.38;5.57;;;;;;;13.51;75.46;98639.75;10413282;28;20092;-63
2024/03/31 08:00:06;;;;;;;16.98;4.82;;;;;;;13.43;75.73;98622.88;10410208;28;20519;-67
2024/03/31 08:05:06;;;;;;;16.40;6.03;;;;;;;13.34;75.82;98628.88;10413079;28;20045;-68
2024/03/31 08:10:07;;;;;;;17.73;5.60;;;;;;;13.47;76.01;98612.44;10410959;28;20052;-69
2024/03/31 08:15:08;;;;;;;21.45;5.75;;;;;;;13.79;75.66;98596.63;10411545;28;20037;-68
2024/03/31 08:20:08;;;;;;;18.92;4.28;;;;;;;14.04;75.25;98592.75;10409111;28;20041;-69
2024/03/31 08:25:09;;;;;;;18.73;4.68;;;;;;;14.01;75.35;98593.25;10409383;28;20098;-63
2024/03/31 08:30:10;;;;;;;20.90;4.53;;;;;;;14.26;75.05;98590.19;10411359;28;20068;-68
2024/03/31 08:35:10;;;;;;;13.02;4.20;;;;;;;14.38;74.28;98590.13;10413514;28;20085;-64
2024/03/31 08:40:11;;;;;;;16.10;4.47;;;;;;;14.46;74.13;98587.00;10411444;28;20052;-65
2024/03/31 08:45:15;;;;;;;13.48;3.35;;;;;;;14.52;73.93;98590.63;10411401;28;20047;-65
2024/03/31 08:50:16;;;;;;;16.23;3.67;;;;;;;14.64;73.70;98575.97;10413651;28;20052;-69
2024/03/31 08:55:17;;;;;;;11.70;2.22;;;;;;;14.98;72.94;98553.47;10412912;28;20453;-68
2024/03/31 09:00:18;;;;;;;12.77;2.05;;;;;;;15.17;72.85;98560.25;10414512;28;20053;-66
2024/03/31 09:05:18;;;;;;;9.93;2.85;;;;;;;15.48;72.12;98576.88;10413474;28;20049;-68
2024/03/31 09:10:19;;;;;;;13.18;2.17;;;;;;;15.77;71.75;98591.06;10403712;28;20446;-68
2024/03/31 09:15:19;;;;;;;20.40;1.80;;;;;;;16.13;71.32;98585.22;10410559;28;20072;-64
2024/03/31 09:20:20;;;;;;;14.40;3.10;;;;;;;16.30;70.96;98583.22;10403705;28;20041;-64
2024/03/31 09:25:20;;;;;;;12.40;1.13;;;;;;;16.33;70.61;98590.84;10406475;28;20056;-59
2024/03/31 09:30:24;;;;;;;14.32;1.95;;;;;;;16.53;69.93;98576.63;10400433;28;20439;-60
2024/03/31 09:35:25;;;;;;;12.93;1.63;;;;;;;16.85;69.68;98575.81;10407760;28;20053;-60
2024/03/31 09:40:26;;;;;;;10.10;1.17;;;;;;;17.21;68.29;98574.13;10403303;28;20084;-60
2024/03/31 09:45:27;;;;;;;18.20;2.05;;;;;;;17.31;68.03;98573.38;10408036;28;20086;-59
2024/03/31 09:50:35;;;;;;;11.85;1.38;;;;;;;17.67;67.04;98570.00;10405516;28;20087;-60
2024/03/31 09:55:40;;;;;;;14.23;0.90;;;;;;;17.91;66.61;98567.63;10409219;28;20045;-60
2024/03/31 10:00:44;;;;;;;11.73;1.30;;;;;;;18.34;65.47;98571.78;10411404;28;20050;-61
2024/03/31 10:05:45;;;;;;;8.05;1.08;;;;;;;19.01;63.90;98569.06;10408742;28;20102;-60
2024/03/31 10:10:46;;;;;;;8.85;0.70;;;;;;;19.06;64.12;98557.38;10405199;28;20561;-60
2024/03/31 10:15:48;;;;;;;9.77;0.93;;;;;;;19.14;63.15;98562.25;10409728;28;20098;-60
2024/03/31 10:20:50;;;;;;;7.70;0.70;;;;;;;22.25;56.60;98546.19;10412070;28;20041;-61
2024/03/31 10:25:52;;;;;;;13.02;0.90;;;;;;;26.39;47.42;98531.19;10393562;28;20048;-61
2024/03/31 10:30:52;;;;;;;14.23;0.80;;;;;;;28.26;44.04;98520.28;10405479;28;20415;-62
2024/03/31 10:35:54;;;;;;;10.23;1.35;;;;;;;29.12;41.72;98517.00;10399378;28;20049;-62
2024/03/31 10:40:55;;;;;;;12.50;1.73;;;;;;;30.17;39.31;98510.75;10408795;28;20056;-61
2024/03/31 10:45:56;;;;;;;15.38;1.98;;;;;;;28.64;41.42;98511.00;10404887;28;20090;-62
2024/03/31 10:51:07;;;;;;;9.10;0.50;;;;;;;26.25;44.86;98508.53;10404782;28;20053;-62
2024/03/31 10:56:08;;;;;;;14.60;0.95;;;;;;;25.44;46.02;98513.44;10412870;28;20083;-61
2024/03/31 11:01:16;;;;;;;16.65;1.20;;;;;;;24.97;46.04;98501.28;10403103;28;20045;-61
2024/03/31 11:06:17;;;;;;;9.52;0.68;;;;;;;24.61;45.35;98485.75;10411801;28;20050;-61
2024/03/31 11:11:18;;;;;;;16.90;0.93;;;;;;;24.72;45.40;98476.91;10403762;28;20064;-61
2024/03/31 11:16:20;;;;;;;11.63;1.33;;;;;;;25.29;44.24;98481.66;10408651;28;20094;-61
2024/03/31 11:21:30;;;;;;;10.77;0.80;;;;;;;25.19;44.38;98481.94;10406919;28;20045;-61
2024/03/31 11:26:30;;;;;;;13.07;1.65;;;;;;;27.32;40.20;98475.63;10408680;28;20516;-58
2024/03/31 11:31:32;;;;;;;14.70;1.25;;;;;;;29.27;36.92;98471.22;10405001;28;20049;-61
2024/03/31 11:36:33;;;;;;;10.88;0.73;;;;;;;27.82;39.40;98463.75;10383631;28;20099;-62
2024/03/31 11:41:34;;;;;;;10.25;0.73;;;;;;;28.98;36.79;98450.91;10405657;28;20570;-62
2024/03/31 11:46:35;;;;;;;9.02;0.77;;;;;;;28.74;37.01;98450.88;10401834;28;20095;-62
2024/03/31 11:51:39;;;;;;;13.73;0.90;;;;;;;32.95;30.73;98438.13;10405404;28;20042;-69
2024/03/31 11:56:40;;;;;;;12.23;1.95;;;;;;;36.48;26.66;98441.09;10415127;28;20037;-71
2024/03/31 12:01:40;;;;;;;14.13;1.35;;;;;;;38.80;24.23;98426.84;10414156;28;20042;-68
2024/03/31 12:06:42;;;;;;;16.83;1.35;;;;;;;39.56;23.40;98418.53;10417354;28;20049;-70
2024/03/31 12:11:43;;;;;;;15.60;2.15;;;;;;;40.47;21.98;98412.56;10410755;28;20064;-71
2024/03/31 12:16:44;;;;;;;9.98;1.02;;;;;;;37.77;24.10;98412.19;10417648;28;20151;-70
2024/03/31 12:21:45;;;;;;;21.48;1.70;;;;;;;35.29;26.30;98414.59;10418167;28;20037;-64
2024/03/31 12:26:46;;;;;;;15.40;1.45;;;;;;;33.41;27.81;98417.75;10411434;28;20512;-64
2024/03/31 12:31:47;;;;;;;15.82;2.40;;;;;;;32.13;28.35;98398.50;10411201;28;20060;-64
2024/03/31 12:36:47;;;;;;;13.73;1.50;;;;;;;31.77;28.44;98384.69;10411514;28;20095;-64
2024/03/31 12:41:48;;;;;;;18.15;1.35;;;;;;;32.45;27.59;98368.50;10411720;28;20105;-60
2024/03/31 12:46:49;;;;;;;15.00;1.08;;;;;;;31.40;28.43;98364.88;10413491;28;20049;-63
2024/03/31 12:51:54;;;;;;;14.45;1.52;;;;;;;31.23;28.88;98352.19;10409240;28;20041;-62
2024/03/31 12:56:54;;;;;;;19.65;1.98;;;;;;;34.88;24.37;98344.09;10408675;28;20048;-62
2024/03/31 13:01:59;;;;;;;15.18;1.17;;;;;;;33.80;25.53;98333.91;10410217;28;20069;-63
2024/03/31 13:07:00;;;;;;;11.50;1.48;;;;;;;31.71;28.28;98327.00;10411806;28;20037;-63
2024/03/31 13:12:01;;;;;;;17.38;1.35;;;;;;;29.78;30.93;98319.28;10407622;28;20045;-63
2024/03/31 13:17:02;;;;;;;9.35;1.38;;;;;;;28.47;31.78;98315.69;10407869;28;20041;-69
2024/03/31 13:22:02;;;;;;;13.05;1.17;;;;;;;27.40;33.11;98310.00;10404532;28;20080;-68
2024/03/31 13:27:03;;;;;;;14.52;1.65;;;;;;;26.59;34.28;98297.41;10404281;28;20110;-68
2024/03/31 13:32:04;;;;;;;12.93;0.90;;;;;;;26.09;35.36;98291.44;10408414;28;20045;-70
2024/03/31 13:37:04;;;;;;;15.18;1.52;;;;;;;26.06;35.48;98291.28;10401183;28;20064;-68
2024/03/31 13:42:06;;;;;;;11.32;1.98;;;;;;;28.20;32.16;98288.72;10409236;28;20052;-69
2024/03/31 13:47:06;;;;;;;13.38;1.20;;;;;;;29.57;30.18;98288.19;10414221;28;20499;-68
2024/03/31 13:52:06;;;;;;;14.88;1.00;;;;;;;29.62;30.61;98280.44;10411485;28;20186;-63
2024/03/31 13:57:07;;;;;;;11.80;2.25;;;;;;;28.31;33.42;98280.81;10408007;28;20048;-62
2024/03/31 14:02:07;;;;;;;24.73;3.20;;;;;;;27.92;33.16;98286.59;10407798;28;20044;-63
2024/03/31 14:07:08;;;;;;;9.88;1.38;;;;;;;27.65;33.49;98283.31;10405666;28;20064;-62
2024/03/31 14:12:08;;;;;;;14.85;1.65;;;;;;;27.05;34.14;98279.94;10405930;28;20172;-63
2024/03/31 14:17:09;;;;;;;22.27;3.05;;;;;;;26.66;35.27;98261.88;10405243;28;20045;-62
2024/03/31 14:22:09;;;;;;;20.05;1.98;;;;;;;25.94;35.87;98264.44;10414440;28;20095;-59
2024/03/31 14:27:10;;;;;;;14.27;1.73;;;;;;;26.14;35.45;98253.84;10391589;28;20037;-65
2024/03/31 14:32:11;;;;;;;17.48;1.95;;;;;;;26.03;35.46;98247.91;10410894;28;20093;-66
2024/03/31 14:37:12;;;;;;;10.98;1.23;;;;;;;25.89;36.01;98240.63;10408041;28;20118;-66
2024/03/31 14:42:13;;;;;;;11.75;1.10;;;;;;;25.30;37.03;98251.47;10376272;28;20046;-65
2024/03/31 14:47:13;;;;;;;17.67;2.75;;;;;;;24.89;37.02;98238.97;10407133;28;20136;-65
2024/03/31 14:52:14;;;;;;;18.60;1.00;;;;;;;24.33;38.59;98245.00;10410832;28;20063;-66
2024/03/31 14:57:14;;;;;;;22.23;3.05;;;;;;;24.09;38.99;98239.09;10402544;28;20045;-64
2024/03/31 15:02:15;;;;;;;13.05;2.00;;;;;;;23.73;39.59;98240.03;10413419;28;20049;-67
2024/03/31 15:07:15;;;;;;;17.00;1.90;;;;;;;23.64;39.59;98250.97;10421660;28;20137;-65
2024/03/31 15:12:16;;;;;;;15.02;1.77;;;;;;;23.40;40.08;98250.50;10393686;28;20049;-61
2024/03/31 15:17:16;;;;;;;18.08;1.88;;;;;;;23.30;40.47;98246.06;10400162;28;20083;-62
2024/03/31 15:22:17;;;;;;;16.25;1.52;;;;;;;23.22;40.44;98244.88;10402703;28;20103;-61
2024/03/31 15:27:18;;;;;;;15.98;2.00;;;;;;;23.15;40.63;98255.47;10402455;28;20053;-61
2024/03/31 15:32:19;;;;;;;13.55;1.55;;;;;;;22.88;40.78;98267.31;10408906;28;20053;-61
2024/03/31 15:37:19;;;;;;;17.83;2.47;;;;;;;22.81;41.10;98265.00;10413318;28;20124;-61
2024/03/31 15:42:20;;;;;;;18.13;1.80;;;;;;;22.75;41.31;98268.97;10413394;28;20063;-61
2024/03/31 15:47:20;;;;;;;19.88;2.78;;;;;;;22.50;42.01;98264.84;10402174;28;20041;-60
2024/03/31 15:52:21;;;;;;;19.23;1.48;;;;;;;22.57;41.61;98257.00;10413634;28;20512;-61
2024/03/31 15:57:21;;;;;;;16.25;1.67;;;;;;;22.75;41.55;98247.88;10398406;28;20100;-61
2024/03/31 16:02:22;;;;;;;15.82;1.25;;;;;;;22.86;41.43;98256.66;10407353;28;20045;-68
2024/03/31 16:07:22;;;;;;;20.88;1.75;;;;;;;23.00;41.41;98259.34;10410609;28;20512;-67
2024/03/31 16:12:23;;;;;;;20.13;1.38;;;;;;;22.97;41.75;98260.78;10393459;28;20060;-60
2024/03/31 16:17:23;;;;;;;12.10;2.10;;;;;;;22.89;41.33;98258.78;10409085;28;20048;-61
2024/03/31 16:22:24;;;;;;;16.42;1.15;;;;;;;22.87;40.79;98257.47;10414924;28;20038;-61
2024/03/31 16:27:24;;;;;;;21.10;1.92;;;;;;;22.95;40.73;98254.00;10411516;28;20063;-61
2024/03/31 16:32:25;;;;;;;17.30;2.55;;;;;;;22.94;40.85;98258.66;10410225;28;20076;-60
2024/03/31 16:37:25;;;;;;;22.23;1.63;;;;;;;22.80;40.90;98246.13;10409534;28;20131;-60
2024/03/31 16:42:26;;;;;;;12.00;1.35;;;;;;;22.68;40.74;98214.59;10414864;28;20049;-61
2024/03/31 16:47:28;;;;;;;15.15;2.13;;;;;;;22.46;40.93;98242.75;10396927;28;20045;-61
2024/03/31 16:52:28;;;;;;;14.10;1.27;;;;;;;22.65;40.70;98260.97;10416225;28;20101;-61
2024/03/31 16:57:29;;;;;;;15.82;1.15;;;;;;;22.65;40.90;98270.00;10412872;28;20040;-62
2024/03/31 17:02:29;;;;;;;7.57;1.23;;;;;;;22.54;41.11;98265.84;10402246;28;20075;-61
2024/03/31 17:07:30;;;;;;;18.13;1.77;;;;;;;22.18;41.50;98264.63;10402360;28;20037;-63
2024/03/31 17:12:31;;;;;;;14.02;1.52;;;;;;;22.00;42.00;98254.59;10411995;28;20041;-62
2024/03/31 17:17:31;;;;;;;14.50;1.67;;;;;;;21.71;42.37;98263.06;10406415;28;20057;-61
2024/03/31 17:22:32;;;;;;;17.65;2.30;;;;;;;21.37;42.94;98269.63;10405464;28;20633;-65
2024/03/31 17:27:32;;;;;;;24.90;2.70;;;;;;;21.11;43.54;98264.56;10404467;28;20042;-66
2024/03/31 17:32:33;;;;;;;16.65;1.35;;;;;;;20.84;43.98;98265.22;10393314;28;20126;-66
2024/03/31 17:37:33;;;;;;;10.13;1.40;;;;;;;20.56;44.09;98258.78;10402837;28;20040;-66
2024/03/31 17:42:34;;;;;;;10.85;1.17;;;;;;;20.37;44.69;98240.44;10402655;28;20385;-66
2024/03/31 17:47:34;;;;;;;11.05;1.50;;;;;;;20.27;44.63;98242.47;10399251;28;20041;-66
2024/03/31 17:52:35;;;;;;;14.15;1.45;;;;;;;20.05;45.11;98237.56;10410037;28;20048;-64
2024/03/31 17:57:36;;;;;;;12.25;2.38;;;;;;;19.83;45.52;98241.63;10403772;28;20052;-67
2024/03/31 18:02:37;;;;;;;29.73;1.88;;;;;;;19.56;46.53;98261.19;10407750;28;20041;-64
2024/03/31 18:07:39;;;;;;;12.27;1.40;;;;;;;19.38;47.27;98265.44;10385533;28;20041;-63
2024/03/31 18:12:40;;;;;;;12.70;1.90;;;;;;;19.20;48.10;98267.75;10408767;28;20102;-63
2024/03/31 18:17:40;;;;;;;17.13;1.90;;;;;;;19.11;48.60;98272.16;10402568;28;20049;-63
2024/03/31 18:22:41;;;;;;;11.18;2.83;;;;;;;18.99;49.10;98269.00;10400849;28;20087;-63
2024/03/31 18:27:41;;;;;;;25.52;6.80;;;;;;;18.85;49.76;98268.00;10405957;28;20045;-60
2024/03/31 18:32:42;;;;;;;12.65;3.30;;;;;;;18.71;50.41;98279.47;10397960;28;20500;-62
2024/03/31 18:37:42;;;;;;;19.98;4.25;;;;;;;18.53;51.12;98286.38;10399798;28;20045;-63
2024/03/31 18:42:43;;;;;;;14.45;3.08;;;;;;;18.34;51.70;98285.34;10407991;28;20509;-62
2024/03/31 18:47:43;;;;;;;21.00;3.47;;;;;;;18.14;52.03;98300.66;10404433;28;20073;-62
2024/03/31 18:52:44;;;;;;;18.80;2.30;;;;;;;17.93;52.75;98312.66;10384089;28;20049;-64
2024/03/31 18:57:44;;;;;;;12.98;1.65;;;;;;;17.73;53.02;98302.59;10403505;28;20107;-62
2024/03/31 19:02:45;;;;;;;13.65;2.53;;;;;;;17.68;53.40;98314.28;10388048;28;20052;-64
2024/03/31 19:07:46;;;;;;;15.13;2.20;;;;;;;17.59;53.78;98322.16;10413144;28;20492;-62
2024/03/31 19:12:46;;;;;;;11.95;2.85;;;;;;;17.42;54.12;98322.44;10414414;28;20131;-64
2024/03/31 19:17:47;;;;;;;15.88;1.95;;;;;;;17.29;54.69;98319.44;10415881;28;20512;-63
2024/03/31 19:22:47;;;;;;;18.45;3.55;;;;;;;17.14;54.83;98320.22;10418481;28;20138;-62
2024/03/31 19:27:48;;;;;;;10.57;3.58;;;;;;;16.96;55.50;98330.53;10414847;28;20042;-64
2024/03/31 19:32:48;;;;;;;19.13;2.67;;;;;;;16.91;55.25;98327.00;10412300;28;20098;-64
2024/03/31 19:37:54;;;;;;;19.20;5.10;;;;;;;16.85;55.80;98309.88;10409834;28;20049;-63
2024/03/31 19:42:54;;;;;;;23.90;8.60;;;;;;;16.72;56.55;98310.34;10415288;28;20057;-62
2024/03/31 19:47:55;;;;;;;41.13;13.00;;;;;;;16.49;57.19;98320.56;10411229;28;20037;-62
2024/03/31 19:52:56;;;;;;;34.55;9.43;;;;;;;16.42;57.14;98338.97;10411727;28;20052;-62
2024/03/31 19:57:56;;;;;;;20.08;6.63;;;;;;;16.41;57.21;98372.56;10411335;28;20041;-61
2024/03/31 20:02:57;;;;;;;21.73;5.75;;;;;;;16.42;57.47;98372.31;10414402;28;20114;-62
2024/03/31 20:07:57;;;;;;;12.52;2.60;;;;;;;16.41;57.33;98361.72;10405771;28;20038;-63
2024/03/31 20:12:58;;;;;;;13.57;2.60;;;;;;;16.42;57.52;98369.59;10407748;28;20054;-61
2024/03/31 20:17:58;;;;;;;16.10;2.28;;;;;;;16.37;57.37;98366.06;10407506;28;20041;-61
2024/03/31 20:22:59;;;;;;;8.93;2.70;;;;;;;16.39;57.66;98355.75;10407638;28;20053;-62
2024/03/31 20:27:59;;;;;;;13.18;4.03;;;;;;;16.40;57.84;98373.66;10403983;28;20492;-62
2024/03/31 20:33:00;;;;;;;11.30;2.15;;;;;;;16.32;57.71;98374.16;10403107;28;20492;-64
2024/03/31 20:38:01;;;;;;;16.40;1.77;;;;;;;16.29;57.41;98363.84;10391111;28;20072;-64
2024/03/31 20:43:01;;;;;;;12.98;1.50;;;;;;;16.37;57.34;98353.31;10409620;28;20045;-63
2024/03/31 20:48:02;;;;;;;11.95;2.45;;;;;;;16.37;57.70;98353.31;10412238;28;20072;-63
2024/03/31 20:53:03;;;;;;;22.80;5.65;;;;;;;16.22;58.04;98353.25;10414732;28;20098;-60
2024/03/31 20:58:04;;;;;;;19.15;4.15;;;;;;;16.01;58.73;98372.06;10408962;28;20052;-60
2024/03/31 21:03:05;;;;;;;10.55;3.83;;;;;;;15.91;58.98;98379.31;10411522;28;20412;-60
2024/03/31 21:08:05;;;;;;;12.73;2.92;;;;;;;15.79;59.21;98369.47;10401323;28;20040;-60
2024/03/31 21:13:06;;;;;;;13.57;2.58;;;;;;;15.70;59.34;98368.28;10414663;28;20044;-57
2024/03/31 21:18:06;;;;;;;8.55;1.35;;;;;;;15.53;59.67;98375.72;10402765;28;20037;-59
2024/03/31 21:23:07;;;;;;;13.48;2.10;;;;;;;15.42;59.91;98369.38;10407777;28;20041;-59
2024/03/31 21:28:07;;;;;;;9.40;1.42;;;;;;;15.41;59.96;98356.94;10409891;28;20313;-61
2024/03/31 21:33:08;;;;;;;9.93;2.33;;;;;;;15.41;59.88;98374.00;10410287;28;20045;-60
2024/03/31 21:38:08;;;;;;;15.93;3.13;;;;;;;15.38;60.08;98371.81;10407612;28;20037;-58
2024/03/31 21:43:09;;;;;;;12.98;1.35;;;;;;;15.34;60.26;98380.69;10407212;28;20059;-58
2024/03/31 21:48:10;;;;;;;8.73;1.48;;;;;;;15.30;60.26;98347.88;10400396;28;20061;-61
2024/03/31 21:53:10;;;;;;;16.35;1.73;;;;;;;15.43;59.86;98295.22;10385910;28;20480;-60
2024/03/31 21:58:11;;;;;;;16.05;2.28;;;;;;;15.42;59.99;98242.13;10408845;28;20037;-60
2024/03/31 22:03:11;;;;;;;10.85;2.13;;;;;;;15.25;60.51;98245.00;10404815;28;20143;-61
2024/03/31 22:08:12;;;;;;;9.75;2.10;;;;;;;15.17;61.11;98265.22;10403907;28;20066;-60
2024/03/31 22:13:12;;;;;;;7.32;1.58;;;;;;;15.44;60.38;98265.19;10403531;28;20128;-61
2024/03/31 22:18:13;;;;;;;12.82;2.55;;;;;;;15.62;59.79;98257.69;10391252;28;20053;-61
2024/03/31 22:23:13;;;;;;;7.40;1.48;;;;;;;15.65;59.81;98258.00;10404374;28;20272;-60
2024/03/31 22:28:14;;;;;;;8.25;1.52;;;;;;;15.57;60.15;98230.59;10404020;28;20038;-61
2024/03/31 22:33:15;;;;;;;12.60;2.60;;;;;;;15.48;60.58;98230.25;10400057;28;20049;-61
2024/03/31 22:38:15;;;;;;;7.65;2.55;;;;;;;15.22;61.39;98208.41;10411523;28;20480;-60
2024/03/31 22:43:15;;;;;;;11.38;1.83;;;;;;;14.95;62.33;98183.31;10404714;28;20045;-60
2024/03/31 22:48:17;;;;;;;13.50;2.50;;;;;;;14.82;62.96;98201.59;10383417;28;20800;-61
2024/03/31 22:53:17;;;;;;;12.50;1.98;;;;;;;14.83;62.68;98180.78;10403690;28;20048;-60
2024/03/31 22:58:18;;;;;;;8.85;2.38;;;;;;;14.77;62.93;98190.75;10410374;28;20407;-61
2024/03/31 23:03:18;;;;;;;12.10;2.88;;;;;;;14.75;63.21;98198.31;10410230;28;20417;-61